createdAt,value
2019-03-08T00:00:05.548Z,61.10
2019-03-08T00:01:05.882Z,61.20
2019-03-08T00:02:05.251Z,61.20
2019-03-08T00:03:05.900Z,61.20
2019-03-08T00:04:05.497Z,61.20
2019-03-08T00:05:06.136Z,61.30
2019-03-08T00:06:05.935Z,61.30
2019-03-08T00:07:07.749Z,61.50
2019-03-08T00:08:08.475Z,61.50
2019-03-08T00:09:05.772Z,61.50
2019-03-08T00:10:06.201Z,61.50
2019-03-08T00:11:05.563Z,61.40
2019-03-08T00:12:08.328Z,61.30
2019-03-08T00:13:06.028Z,61.30
2019-03-08T00:14:05.541Z,61.30
2019-03-08T00:15:13.521Z,61.30
2019-03-08T00:16:08.395Z,61.30
2019-03-08T00:17:08.191Z,61.40
2019-03-08T00:18:05.486Z,61.40
2019-03-08T00:19:10.638Z,61.50
2019-03-08T00:20:08.645Z,61.50
2019-03-08T00:21:06.214Z,61.50
2019-03-08T00:22:08.393Z,61.60
2019-03-08T00:23:05.608Z,61.60
2019-03-08T00:24:06.213Z,61.60
2019-03-08T00:25:05.686Z,61.70
2019-03-08T00:26:06.188Z,61.70
2019-03-08T00:27:08.283Z,61.70
2019-03-08T00:28:08.150Z,61.70
2019-03-08T00:29:05.637Z,61.80
2019-03-08T00:30:05.503Z,61.70
2019-03-08T00:31:05.913Z,61.70
2019-03-08T00:32:10.650Z,61.60
2019-03-08T00:33:06.043Z,61.60
2019-03-08T00:34:05.699Z,61.60
2019-03-08T00:35:06.158Z,61.50
2019-03-08T00:36:05.461Z,61.50
2019-03-08T00:37:11.005Z,61.40
2019-03-08T00:38:05.194Z,61.40
2019-03-08T00:39:05.725Z,61.40
2019-03-08T00:40:06.106Z,61.40
2019-03-08T00:41:08.041Z,61.10
2019-03-08T00:42:05.227Z,61.20
2019-03-08T00:43:05.586Z,61.10
2019-03-08T00:44:05.904Z,61.10
2019-03-08T00:45:05.337Z,61.20
2019-03-08T00:46:06.000Z,61.30
2019-03-08T00:47:05.383Z,61.70
2019-03-08T00:48:06.071Z,62.30
2019-03-08T00:49:05.456Z,62.70
2019-03-08T00:50:07.798Z,63.80
2019-03-08T00:51:05.964Z,63.80
2019-03-08T00:52:05.352Z,64.10
2019-03-08T00:53:06.134Z,64.20
2019-03-08T00:54:08.171Z,64.40
2019-03-08T00:55:05.486Z,64.60
2019-03-08T00:56:05.780Z,65.30
2019-03-08T00:57:06.127Z,65.50
2019-03-08T00:58:05.685Z,65.80
2019-03-08T00:59:06.065Z,66.20
2019-03-08T01:00:08.042Z,67.60
2019-03-08T01:01:05.406Z,67.60
2019-03-08T01:02:05.983Z,68.10
2019-03-08T01:03:08.087Z,68.60
2019-03-08T01:04:07.917Z,68.90
2019-03-08T01:05:06.090Z,69.00
2019-03-08T01:06:08.081Z,69.60
2019-03-08T01:07:05.529Z,69.60
2019-03-08T01:08:08.567Z,69.80
2019-03-08T01:09:11.151Z,70.10
2019-03-08T01:10:05.773Z,70.10
2019-03-08T01:11:08.598Z,70.40
2019-03-08T01:12:10.900Z,70.70
2019-03-08T01:13:06.361Z,70.70
2019-03-08T01:14:08.296Z,70.90
2019-03-08T01:15:05.448Z,70.90
2019-03-08T01:16:05.874Z,71.20
2019-03-08T01:17:08.263Z,71.10
2019-03-08T01:18:05.767Z,71.20
2019-03-08T01:19:06.319Z,71.10
2019-03-08T01:20:08.334Z,70.60
2019-03-08T01:21:05.659Z,70.50
2019-03-08T01:22:06.149Z,70.00
2019-03-08T01:23:05.548Z,69.60
2019-03-08T01:24:06.012Z,69.50
2019-03-08T01:25:13.046Z,68.90
2019-03-08T01:26:05.212Z,68.90
2019-03-08T01:27:05.739Z,68.80
2019-03-08T01:28:06.245Z,68.60
2019-03-08T01:29:05.619Z,68.10
2019-03-08T01:30:08.643Z,67.70
2019-03-08T01:31:08.625Z,67.50
2019-03-08T01:32:06.041Z,67.50
2019-03-08T01:33:05.640Z,67.30
2019-03-08T01:34:05.265Z,67.10
2019-03-08T01:35:08.162Z,66.80
2019-03-08T01:36:05.314Z,66.80
2019-03-08T01:37:05.663Z,66.70
2019-03-08T01:38:06.053Z,66.60
2019-03-08T01:39:07.925Z,65.70
2019-03-08T01:40:06.166Z,65.70
2019-03-08T01:41:08.335Z,65.30
2019-03-08T01:42:08.523Z,65.00
2019-03-08T01:43:05.785Z,65.00
2019-03-08T01:44:06.427Z,64.70
2019-03-08T01:45:08.348Z,64.20
2019-03-08T01:46:05.694Z,64.20
2019-03-08T01:47:06.367Z,64.20
2019-03-08T01:48:08.346Z,64.00
2019-03-08T01:49:06.049Z,64.00
2019-03-08T01:50:05.684Z,64.00
2019-03-08T01:51:05.661Z,63.90
2019-03-08T01:52:08.746Z,63.90
2019-03-08T01:53:06.171Z,63.90
2019-03-08T01:54:05.524Z,63.70
2019-03-08T01:55:05.862Z,63.70
2019-03-08T01:56:08.896Z,63.60
2019-03-08T01:57:06.390Z,63.60
2019-03-08T01:58:06.062Z,63.50
2019-03-08T01:59:05.553Z,63.40
2019-03-08T02:00:06.054Z,63.40
2019-03-08T02:01:05.639Z,63.40
2019-03-08T02:02:06.179Z,63.30
2019-03-08T02:03:08.144Z,63.20
2019-03-08T02:04:05.298Z,63.20
2019-03-08T02:05:05.985Z,63.10
2019-03-08T02:06:08.197Z,63.20
2019-03-08T02:07:05.485Z,63.20
2019-03-08T02:08:06.086Z,63.10
2019-03-08T02:09:05.555Z,62.80
2019-03-08T02:10:08.539Z,62.60
2019-03-08T02:11:05.855Z,62.60
2019-03-08T02:12:05.123Z,62.50
2019-03-08T02:13:05.900Z,62.20
2019-03-08T02:14:08.223Z,62.00
2019-03-08T02:15:05.659Z,61.90
2019-03-08T02:16:06.081Z,61.80
2019-03-08T02:17:05.551Z,61.70
2019-03-08T02:18:08.633Z,61.80
2019-03-08T02:19:05.815Z,61.80
2019-03-08T02:20:06.258Z,61.80
2019-03-08T02:21:08.434Z,61.70
2019-03-08T02:22:05.747Z,61.60
2019-03-08T02:23:08.778Z,61.30
2019-03-08T02:24:08.543Z,61.10
2019-03-08T02:25:05.914Z,61.10
2019-03-08T02:26:05.461Z,60.90
2019-03-08T02:27:08.478Z,60.70
2019-03-08T02:28:05.777Z,60.80
2019-03-08T02:29:06.541Z,60.80
2019-03-08T02:30:05.980Z,60.80
2019-03-08T02:31:05.552Z,60.90
2019-03-08T02:32:06.077Z,60.90
2019-03-08T02:33:05.543Z,60.90
2019-03-08T02:34:08.633Z,60.60
2019-03-08T02:35:05.935Z,60.60
2019-03-08T02:36:07.860Z,60.50
2019-03-08T02:37:06.426Z,60.50
2019-03-08T02:38:06.050Z,60.50
2019-03-08T02:39:05.498Z,60.50
2019-03-08T02:40:05.943Z,60.60
2019-03-08T02:41:05.328Z,60.60
2019-03-08T02:42:08.151Z,60.30
2019-03-08T02:43:05.280Z,60.30
2019-03-08T02:44:05.579Z,60.30
2019-03-08T02:45:06.183Z,60.30
2019-03-08T02:46:05.738Z,60.30
2019-03-08T02:47:06.255Z,60.40
2019-03-08T02:48:05.648Z,60.20
2019-03-08T02:49:06.778Z,60.10
2019-03-08T02:50:06.128Z,60.10
2019-03-08T02:51:05.614Z,60.10
2019-03-08T02:52:06.112Z,60.10
2019-03-08T02:53:05.950Z,59.70
2019-03-08T02:54:05.519Z,59.60
2019-03-08T02:55:08.410Z,59.50
2019-03-08T02:56:05.674Z,59.50
2019-03-08T02:57:08.568Z,59.20
2019-03-08T02:58:10.899Z,59.20
2019-03-08T02:59:05.244Z,59.20
2019-03-08T03:00:08.177Z,59.10
2019-03-08T03:01:05.552Z,59.10
2019-03-08T03:02:06.239Z,59.10
2019-03-08T03:03:05.920Z,59.00
2019-03-08T03:04:05.266Z,58.90
2019-03-08T03:05:13.231Z,58.70
2019-03-08T03:06:07.999Z,58.70
2019-03-08T03:07:07.674Z,58.70
2019-03-08T03:08:05.854Z,58.80
2019-03-08T03:09:07.938Z,58.60
2019-03-08T03:10:06.200Z,58.60
2019-03-08T03:11:05.571Z,58.60
2019-03-08T03:12:05.869Z,58.60
2019-03-08T03:13:07.837Z,58.50
2019-03-08T03:14:08.758Z,58.40
2019-03-08T03:15:06.220Z,58.40
2019-03-08T03:16:08.165Z,58.00
2019-03-08T03:17:05.427Z,58.00
2019-03-08T03:18:05.767Z,58.00
2019-03-08T03:19:06.081Z,58.00
2019-03-08T03:20:05.459Z,58.10
2019-03-08T03:21:08.648Z,58.20
2019-03-08T03:22:08.578Z,58.20
2019-03-08T03:23:05.868Z,58.20
2019-03-08T03:24:06.237Z,58.10
2019-03-08T03:25:05.633Z,58.10
2019-03-08T03:26:06.062Z,58.20
2019-03-08T03:27:05.667Z,58.20
2019-03-08T03:28:08.636Z,58.40
2019-03-08T03:29:05.970Z,58.40
2019-03-08T03:30:05.691Z,58.50
2019-03-08T03:31:08.581Z,58.50
2019-03-08T03:32:05.925Z,58.50
2019-03-08T03:33:05.481Z,58.40
2019-03-08T03:34:05.961Z,58.30
2019-03-08T03:35:10.418Z,58.20
2019-03-08T03:36:05.687Z,58.20
2019-03-08T03:37:06.144Z,58.20
2019-03-08T03:38:05.661Z,58.10
2019-03-08T03:39:06.521Z,58.10
2019-03-08T03:40:05.874Z,58.10
2019-03-08T03:41:05.257Z,58.20
2019-03-08T03:42:08.577Z,58.10
2019-03-08T03:43:08.742Z,58.00
2019-03-08T03:44:08.508Z,58.00
2019-03-08T03:45:06.058Z,58.00
2019-03-08T03:46:05.461Z,57.90
2019-03-08T03:47:05.916Z,57.80
2019-03-08T03:48:07.794Z,57.50
2019-03-08T03:49:06.282Z,57.50
2019-03-08T03:50:08.671Z,57.60
2019-03-08T03:51:05.275Z,57.70
2019-03-08T03:52:05.730Z,57.70
2019-03-08T03:53:06.156Z,57.70
2019-03-08T03:54:08.152Z,57.80
2019-03-08T03:55:08.179Z,57.90
2019-03-08T03:56:05.400Z,57.70
2019-03-08T03:57:05.931Z,57.60
2019-03-08T03:58:08.225Z,57.70
2019-03-08T03:59:05.966Z,57.60
2019-03-08T04:00:05.372Z,57.60
2019-03-08T04:01:05.907Z,57.50
2019-03-08T04:02:05.565Z,57.20
2019-03-08T04:03:08.688Z,57.00
2019-03-08T04:04:05.955Z,57.00
2019-03-08T04:05:07.771Z,57.00
2019-03-08T04:06:13.635Z,56.90
2019-03-08T04:07:05.845Z,57.00
2019-03-08T04:08:07.705Z,56.90
2019-03-08T04:09:05.944Z,56.80
2019-03-08T04:10:05.258Z,56.70
2019-03-08T04:11:08.216Z,56.40
2019-03-08T04:12:08.165Z,56.30
2019-03-08T04:13:05.591Z,56.30
2019-03-08T04:14:05.955Z,56.20
2019-03-08T04:15:07.814Z,56.00
2019-03-08T04:16:06.053Z,55.90
2019-03-08T04:17:05.568Z,56.00
2019-03-08T04:18:05.989Z,55.90
2019-03-08T04:19:08.046Z,55.80
2019-03-08T04:20:07.749Z,55.60
2019-03-08T04:21:06.173Z,55.70
2019-03-08T04:22:08.402Z,55.50
2019-03-08T04:23:06.028Z,55.50
2019-03-08T04:24:05.505Z,55.60
2019-03-08T04:25:05.922Z,55.50
2019-03-08T04:26:05.401Z,55.50
2019-03-08T04:27:05.862Z,55.20
2019-03-08T04:28:07.775Z,55.00
2019-03-08T04:29:05.995Z,55.00
2019-03-08T04:30:08.516Z,54.90
2019-03-08T04:31:06.044Z,54.90
2019-03-08T04:32:08.629Z,55.00
2019-03-08T04:33:08.544Z,55.00
2019-03-08T04:34:08.408Z,55.10
2019-03-08T04:35:05.668Z,55.10
2019-03-08T04:36:08.586Z,55.00
2019-03-08T04:37:08.411Z,55.00
2019-03-08T04:38:05.863Z,54.90
2019-03-08T04:39:07.647Z,54.80
2019-03-08T04:40:05.901Z,54.80
2019-03-08T04:41:05.204Z,54.80
2019-03-08T04:42:08.108Z,54.50
2019-03-08T04:43:07.839Z,54.30
2019-03-08T04:44:06.056Z,54.30
2019-03-08T04:45:05.613Z,54.20
2019-03-08T04:46:06.155Z,54.30
2019-03-08T04:47:08.144Z,54.50
2019-03-08T04:48:05.574Z,54.50
2019-03-08T04:49:06.131Z,54.50
2019-03-08T04:50:05.441Z,54.50
2019-03-08T04:51:05.859Z,54.60
2019-03-08T04:52:05.261Z,54.70
2019-03-08T04:53:05.961Z,54.70
2019-03-08T04:54:05.344Z,54.60
2019-03-08T04:55:05.785Z,54.50
2019-03-08T04:56:08.640Z,54.40
2019-03-08T04:57:08.540Z,54.50
2019-03-08T04:58:05.887Z,54.40
2019-03-08T04:59:05.422Z,54.50
2019-03-08T05:00:06.021Z,54.50
2019-03-08T05:01:08.174Z,54.40
2019-03-08T05:02:05.358Z,54.40
2019-03-08T05:03:05.718Z,54.30
2019-03-08T05:04:06.215Z,54.40
2019-03-08T05:05:05.747Z,54.40
2019-03-08T05:06:08.735Z,54.50
2019-03-08T05:07:08.501Z,54.40
2019-03-08T05:08:05.630Z,54.40
2019-03-08T05:09:06.207Z,54.40
2019-03-08T05:10:05.773Z,54.50
2019-03-08T05:11:09.015Z,54.50
2019-03-08T05:12:05.187Z,54.50
2019-03-08T05:13:05.699Z,54.60
2019-03-08T05:14:08.461Z,54.70
2019-03-08T05:15:05.780Z,54.70
2019-03-08T05:16:06.346Z,54.70
2019-03-08T05:17:08.389Z,54.90
2019-03-08T05:18:05.559Z,54.90
2019-03-08T05:19:06.136Z,54.90
2019-03-08T05:20:05.961Z,54.90
2019-03-08T05:21:05.693Z,54.90
2019-03-08T05:22:06.137Z,55.00
2019-03-08T05:23:05.425Z,55.10
2019-03-08T05:24:06.089Z,55.10
2019-03-08T05:25:08.436Z,55.20
2019-03-08T05:26:05.839Z,55.20
2019-03-08T05:27:06.388Z,55.20
2019-03-08T05:28:05.798Z,55.20
2019-03-08T05:29:06.108Z,55.20
2019-03-08T05:30:08.061Z,55.30
2019-03-08T05:31:07.997Z,55.20
2019-03-08T05:32:05.237Z,55.20
2019-03-08T05:33:06.118Z,55.10
2019-03-08T05:34:05.749Z,55.20
2019-03-08T05:35:06.231Z,55.30
2019-03-08T05:36:05.734Z,55.40
2019-03-08T05:37:08.884Z,55.50
2019-03-08T05:38:06.119Z,55.60
2019-03-08T05:39:05.421Z,55.70
2019-03-08T05:40:08.171Z,55.90
2019-03-08T05:41:06.008Z,56.00
2019-03-08T05:42:08.365Z,56.00
2019-03-08T05:43:08.135Z,56.20
2019-03-08T05:44:10.695Z,56.20
2019-03-08T05:45:08.692Z,56.30
2019-03-08T05:46:08.604Z,56.40
2019-03-08T05:47:08.541Z,56.50
2019-03-08T05:48:06.004Z,56.50
2019-03-08T05:49:05.731Z,56.60
2019-03-08T05:50:06.061Z,56.70
2019-03-08T05:51:05.381Z,56.60
2019-03-08T05:52:08.537Z,56.70
2019-03-08T05:53:05.806Z,56.70
2019-03-08T05:54:07.666Z,56.70
2019-03-08T05:55:08.681Z,56.60
2019-03-08T05:56:08.513Z,56.40
2019-03-08T05:57:05.985Z,56.40
2019-03-08T05:58:05.810Z,56.40
2019-03-08T05:59:06.270Z,56.30
2019-03-08T06:00:05.566Z,56.10
2019-03-08T06:01:06.507Z,55.90
2019-03-08T06:02:08.415Z,54.40
2019-03-08T06:03:05.751Z,55.20
2019-03-08T06:04:08.652Z,54.80
2019-03-08T06:05:08.717Z,54.60
2019-03-08T06:06:05.430Z,54.60
2019-03-08T06:07:05.973Z,54.50
2019-03-08T06:08:05.475Z,54.50
2019-03-08T06:09:05.850Z,54.60
2019-03-08T06:10:05.348Z,54.60
2019-03-08T06:11:05.757Z,54.50
2019-03-08T06:12:05.618Z,54.50
2019-03-08T06:13:09.035Z,54.90
2019-03-08T06:14:06.351Z,54.90
2019-03-08T06:15:08.543Z,55.00
2019-03-08T06:16:11.158Z,55.00
2019-03-08T06:17:05.394Z,55.00
2019-03-08T06:18:08.661Z,54.90
2019-03-08T06:19:06.316Z,54.90
2019-03-08T06:20:08.216Z,54.80
2019-03-08T06:21:08.061Z,54.90
2019-03-08T06:22:10.324Z,55.00
2019-03-08T06:23:06.306Z,55.00
2019-03-08T06:24:05.759Z,55.00
2019-03-08T06:25:05.356Z,55.10
2019-03-08T06:26:05.948Z,55.00
2019-03-08T06:27:08.057Z,55.00
2019-03-08T06:28:08.218Z,54.50
2019-03-08T06:29:05.970Z,54.50
2019-03-08T06:30:05.324Z,54.20
2019-03-08T06:31:05.817Z,53.90
2019-03-08T06:32:08.814Z,53.50
2019-03-08T06:33:06.144Z,53.50
2019-03-08T06:34:05.579Z,53.20
2019-03-08T06:35:05.919Z,53.00
2019-03-08T06:36:07.932Z,52.70
2019-03-08T06:37:08.065Z,52.80
2019-03-08T06:38:05.350Z,52.80
2019-03-08T06:39:05.938Z,52.60
2019-03-08T06:40:08.063Z,51.70
2019-03-08T06:41:05.240Z,51.70
2019-03-08T06:42:05.640Z,51.40
2019-03-08T06:43:06.225Z,51.20
2019-03-08T06:44:05.853Z,50.70
2019-03-08T06:45:05.677Z,50.20
2019-03-08T06:46:08.830Z,49.60
2019-03-08T06:47:08.891Z,49.60
2019-03-08T06:48:06.588Z,49.60
2019-03-08T06:49:06.202Z,49.40
2019-03-08T06:50:05.704Z,49.30
2019-03-08T06:51:08.892Z,48.80
2019-03-08T06:52:06.397Z,48.70
2019-03-08T06:53:08.666Z,48.30
2019-03-08T06:54:06.485Z,48.30
2019-03-08T06:55:08.385Z,47.70
2019-03-08T06:56:05.643Z,47.70
2019-03-08T06:57:06.072Z,47.30
2019-03-08T06:58:06.043Z,47.20
2019-03-08T06:59:06.096Z,46.80
2019-03-08T07:00:05.654Z,46.40
2019-03-08T07:01:06.214Z,46.40
2019-03-08T07:02:05.722Z,46.40
2019-03-08T07:03:06.101Z,46.50
2019-03-08T07:04:05.511Z,46.40
2019-03-08T07:05:06.195Z,46.10
2019-03-08T07:06:05.777Z,45.80
2019-03-08T07:07:06.301Z,45.60
2019-03-08T07:08:08.457Z,45.70
2019-03-08T07:09:05.769Z,45.70
2019-03-08T07:10:08.622Z,45.50
2019-03-08T07:11:08.280Z,45.70
2019-03-08T07:12:05.513Z,45.70
2019-03-08T07:13:06.082Z,45.80
2019-03-08T07:14:08.009Z,45.00
2019-03-08T07:15:06.408Z,45.00
2019-03-08T07:16:14.042Z,45.10
2019-03-08T07:17:08.050Z,45.10
2019-03-08T07:18:13.122Z,45.10
2019-03-08T07:19:05.668Z,45.00
2019-03-08T07:20:08.804Z,45.10
2019-03-08T07:21:05.940Z,45.10
2019-03-08T07:22:08.161Z,45.20
2019-03-08T07:23:11.516Z,45.30
2019-03-08T07:24:06.089Z,45.40
2019-03-08T07:25:05.458Z,45.40
2019-03-08T07:26:05.928Z,45.30
2019-03-08T07:27:05.434Z,45.30
2019-03-08T07:28:08.432Z,45.80
2019-03-08T07:29:06.012Z,45.80
2019-03-08T07:30:05.385Z,46.00
2019-03-08T07:31:13.710Z,45.80
2019-03-08T07:32:06.057Z,45.80
2019-03-08T07:33:08.012Z,46.10
2019-03-08T07:34:05.355Z,46.10
2019-03-08T07:35:05.769Z,46.10
2019-03-08T07:36:06.193Z,46.10
2019-03-08T07:37:05.555Z,46.10
2019-03-08T07:38:06.100Z,46.50
2019-03-08T07:39:08.315Z,46.60
2019-03-08T07:40:08.676Z,46.70
2019-03-08T07:41:06.093Z,46.60
2019-03-08T07:42:05.485Z,46.50
2019-03-08T07:43:05.835Z,46.40
2019-03-08T07:44:05.212Z,46.50
2019-03-08T07:45:08.150Z,46.80
2019-03-08T07:46:08.173Z,46.90
2019-03-08T07:47:05.980Z,46.90
2019-03-08T07:48:08.411Z,47.10
2019-03-08T07:49:05.678Z,47.10
2019-03-08T07:50:08.713Z,47.20
2019-03-08T07:51:06.233Z,47.20
2019-03-08T07:52:05.850Z,46.80
2019-03-08T07:53:05.317Z,46.50
2019-03-08T07:54:05.879Z,46.50
2019-03-08T07:55:05.715Z,46.60
2019-03-08T07:56:06.724Z,46.60
2019-03-08T07:57:06.229Z,46.60
2019-03-08T07:58:08.383Z,47.00
2019-03-08T07:59:05.614Z,46.90
2019-03-08T08:00:08.700Z,47.20
2019-03-08T08:01:06.312Z,47.20
2019-03-08T08:02:08.401Z,47.70
2019-03-08T08:03:08.558Z,48.00
2019-03-08T08:04:05.856Z,48.00
2019-03-08T08:05:07.867Z,48.20
2019-03-08T08:06:06.314Z,48.10
2019-03-08T08:07:05.872Z,48.40
2019-03-08T08:08:05.224Z,48.60
2019-03-08T08:09:08.154Z,49.00
2019-03-08T08:10:05.482Z,49.00
2019-03-08T08:11:05.992Z,49.20
2019-03-08T08:12:05.455Z,49.50
2019-03-08T08:13:08.299Z,49.80
2019-03-08T08:14:08.013Z,49.80
2019-03-08T08:15:05.168Z,49.80
2019-03-08T08:16:05.782Z,49.70
2019-03-08T08:17:08.754Z,50.10
2019-03-08T08:18:08.676Z,50.10
2019-03-08T08:19:06.397Z,50.20
2019-03-08T08:20:16.845Z,50.30
2019-03-08T08:21:06.246Z,50.30
2019-03-08T08:22:05.680Z,50.40
2019-03-08T08:23:06.250Z,50.40
2019-03-08T08:24:05.764Z,50.60
2019-03-08T08:25:05.216Z,50.90
2019-03-08T08:26:08.178Z,50.70
2019-03-08T08:27:07.433Z,50.60
2019-03-08T08:28:08.622Z,50.60
2019-03-08T08:29:05.225Z,50.60
2019-03-08T08:30:05.626Z,50.60
2019-03-08T08:31:05.980Z,50.70
2019-03-08T08:32:05.309Z,50.80
2019-03-08T08:33:05.665Z,50.80
2019-03-08T08:34:08.567Z,50.90
2019-03-08T08:35:08.580Z,50.90
2019-03-08T08:36:08.612Z,51.00
2019-03-08T08:37:05.931Z,51.00
2019-03-08T08:38:05.362Z,51.10
2019-03-08T08:39:06.058Z,51.10
2019-03-08T08:40:05.509Z,51.00
2019-03-08T08:41:08.785Z,51.20
2019-03-08T08:42:06.186Z,51.20
2019-03-08T08:43:05.659Z,51.40
2019-03-08T08:44:06.142Z,51.40
2019-03-08T08:45:08.234Z,51.70
2019-03-08T08:46:05.521Z,51.70
2019-03-08T08:47:06.003Z,51.80
2019-03-08T08:48:08.098Z,51.90
2019-03-08T08:49:05.299Z,52.00
2019-03-08T08:50:05.633Z,52.00
2019-03-08T08:51:08.736Z,51.80
2019-03-08T08:52:08.968Z,51.70
2019-03-08T08:53:07.976Z,51.60
2019-03-08T08:54:05.160Z,51.60
2019-03-08T08:55:05.549Z,51.60
2019-03-08T08:56:05.934Z,51.50
2019-03-08T08:57:07.922Z,51.70
2019-03-08T08:58:16.574Z,51.60
2019-03-08T08:59:06.089Z,51.60
2019-03-08T09:00:05.427Z,51.50
2019-03-08T09:01:08.468Z,51.40
2019-03-08T09:02:08.553Z,51.20
2019-03-08T09:03:08.529Z,51.10
2019-03-08T09:04:06.025Z,51.00
2019-03-08T09:05:05.477Z,51.00
2019-03-08T09:06:05.878Z,51.20
2019-03-08T09:07:05.398Z,51.20
2019-03-08T09:08:05.993Z,51.30
2019-03-08T09:09:05.588Z,51.30
2019-03-08T09:10:08.670Z,51.40
2019-03-08T09:11:05.965Z,51.40
2019-03-08T09:12:05.265Z,51.50
2019-03-08T09:13:05.794Z,51.40
2019-03-08T09:14:06.312Z,51.60
2019-03-08T09:15:06.148Z,51.60
2019-03-08T09:16:05.730Z,51.60
2019-03-08T09:17:05.411Z,51.70
2019-03-08T09:18:05.912Z,51.60
2019-03-08T09:19:05.203Z,51.70
2019-03-08T09:20:05.835Z,51.70
2019-03-08T09:21:11.250Z,51.90
2019-03-08T09:22:05.480Z,52.00
2019-03-08T09:23:06.062Z,51.90
2019-03-08T09:24:05.763Z,52.00
2019-03-08T09:25:06.273Z,52.00
2019-03-08T09:26:05.673Z,52.00
2019-03-08T09:27:06.410Z,52.00
2019-03-08T09:28:05.790Z,52.00
2019-03-08T09:29:06.258Z,52.10
2019-03-08T09:30:06.072Z,52.10
2019-03-08T09:31:05.696Z,52.00
2019-03-08T09:32:05.194Z,51.90
2019-03-08T09:33:05.558Z,51.80
2019-03-08T09:34:08.704Z,51.80
2019-03-08T09:35:06.120Z,51.80
2019-03-08T09:36:08.097Z,51.70
2019-03-08T09:37:05.371Z,51.70
2019-03-08T09:38:05.788Z,51.80
2019-03-08T09:39:11.304Z,52.00
2019-03-08T09:40:05.614Z,51.90
2019-03-08T09:41:06.033Z,51.90
2019-03-08T09:42:07.930Z,51.90
2019-03-08T09:43:06.184Z,51.90
2019-03-08T09:44:05.794Z,52.00
2019-03-08T09:45:06.419Z,51.90
2019-03-08T09:46:05.830Z,51.80
2019-03-08T09:47:06.298Z,51.90
2019-03-08T09:48:06.059Z,52.00
2019-03-08T09:49:08.083Z,51.80
2019-03-08T09:50:05.430Z,51.80
2019-03-08T09:51:13.394Z,51.60
2019-03-08T09:52:05.645Z,51.50
2019-03-08T09:53:06.211Z,51.50
2019-03-08T09:54:08.241Z,51.60
2019-03-08T09:55:05.707Z,51.60
2019-03-08T09:56:08.078Z,51.70
2019-03-08T09:57:05.373Z,51.70
2019-03-08T09:58:08.408Z,51.40
2019-03-08T09:59:05.893Z,51.50
2019-03-08T10:00:05.224Z,51.50
2019-03-08T10:01:05.822Z,51.40
2019-03-08T10:02:05.325Z,51.30
2019-03-08T10:03:05.918Z,51.30
2019-03-08T10:04:05.521Z,51.40
2019-03-08T10:05:06.111Z,51.50
2019-03-08T10:06:05.791Z,51.20
2019-03-08T10:07:05.171Z,51.40
2019-03-08T10:08:05.731Z,51.30
2019-03-08T10:09:06.183Z,50.70
2019-03-08T10:10:08.219Z,49.50
2019-03-08T10:11:05.634Z,49.50
2019-03-08T10:12:06.392Z,49.00
2019-03-08T10:13:08.336Z,49.20
2019-03-08T10:14:08.063Z,49.20
2019-03-08T10:15:05.409Z,49.20
2019-03-08T10:16:08.340Z,49.50
2019-03-08T10:17:08.261Z,49.40
2019-03-08T10:18:05.518Z,49.40
2019-03-08T10:19:08.553Z,48.80
2019-03-08T10:20:05.808Z,48.80
2019-03-08T10:21:06.226Z,48.90
2019-03-08T10:22:08.164Z,48.80
2019-03-08T10:23:08.057Z,48.90
2019-03-08T10:24:05.296Z,48.90
2019-03-08T10:25:08.216Z,48.80
2019-03-08T10:26:05.497Z,48.80
2019-03-08T10:27:06.290Z,48.60
2019-03-08T10:28:08.378Z,49.00
2019-03-08T10:29:08.177Z,49.20
2019-03-08T10:30:05.361Z,49.20
2019-03-08T10:31:05.783Z,49.50
2019-03-08T10:32:06.193Z,49.70
2019-03-08T10:33:10.146Z,49.70
2019-03-08T10:34:05.493Z,49.70
2019-03-08T10:35:06.099Z,49.60
2019-03-08T10:36:08.358Z,50.20
2019-03-08T10:37:10.780Z,50.80
2019-03-08T10:38:08.569Z,50.90
2019-03-08T10:39:08.334Z,51.50
2019-03-08T10:40:06.166Z,51.60
2019-03-08T10:41:08.101Z,52.40
2019-03-08T10:42:05.493Z,52.50
2019-03-08T10:43:08.544Z,52.40
2019-03-08T10:44:12.977Z,52.40
2019-03-08T10:45:08.372Z,52.90
2019-03-08T10:46:16.059Z,53.20
2019-03-08T10:47:05.474Z,53.20
2019-03-08T10:48:06.079Z,53.50
2019-03-08T10:49:06.011Z,53.70
2019-03-08T10:50:05.451Z,53.40
2019-03-08T10:51:16.802Z,53.50
2019-03-08T10:52:06.254Z,53.50
2019-03-08T10:53:05.676Z,53.30
2019-03-08T10:54:06.169Z,53.10
2019-03-08T10:55:05.594Z,53.00
2019-03-08T10:56:08.029Z,52.80
2019-03-08T10:57:05.218Z,52.80
2019-03-08T10:58:08.326Z,52.60
2019-03-08T10:59:05.830Z,52.60
2019-03-08T11:00:05.332Z,52.20
2019-03-08T11:01:05.857Z,52.10
2019-03-08T11:02:08.315Z,51.60
2019-03-08T11:03:05.495Z,51.70
2019-03-08T11:04:08.423Z,0.10
2019-03-08T11:05:05.622Z,51.40
2019-03-08T11:06:06.084Z,51.30
2019-03-08T11:07:05.585Z,51.20
2019-03-08T11:08:09.619Z,51.00
2019-03-08T11:09:08.725Z,51.10
2019-03-08T11:10:05.952Z,51.20
2019-03-08T11:11:07.115Z,51.30
2019-03-08T11:12:05.807Z,51.60
2019-03-08T11:13:06.236Z,51.50
2019-03-08T11:14:05.559Z,51.30
2019-03-08T11:15:06.087Z,51.20
2019-03-08T11:16:05.625Z,51.20
2019-03-08T11:17:06.078Z,51.40
2019-03-08T11:18:08.090Z,51.60
2019-03-08T11:19:09.353Z,51.60
2019-03-08T11:20:05.811Z,51.80
2019-03-08T11:21:08.845Z,51.90
2019-03-08T11:22:06.093Z,51.90
2019-03-08T11:23:05.748Z,51.70
2019-03-08T11:24:05.504Z,52.30
2019-03-08T11:25:09.017Z,53.00
2019-03-08T11:26:05.429Z,53.50
2019-03-08T11:27:05.983Z,54.50
2019-03-08T11:28:05.338Z,55.70
2019-03-08T11:29:05.730Z,56.10
2019-03-08T11:30:05.286Z,56.80
2019-03-08T11:31:08.175Z,58.00
2019-03-08T11:32:05.482Z,58.00
2019-03-08T11:33:06.027Z,58.90
2019-03-08T11:34:07.966Z,60.20
2019-03-08T11:35:05.440Z,60.20
2019-03-08T11:36:05.914Z,60.90
2019-03-08T11:37:08.081Z,61.90
2019-03-08T11:38:05.294Z,61.90
2019-03-08T11:39:15.800Z,63.20
2019-03-08T11:40:08.911Z,63.30
2019-03-08T11:41:05.408Z,63.30
2019-03-08T11:42:05.937Z,64.00
2019-03-08T11:43:05.358Z,64.30
2019-03-08T11:44:08.350Z,64.90
2019-03-08T11:45:08.201Z,65.40
2019-03-08T11:46:05.313Z,65.40
2019-03-08T11:47:05.692Z,66.00
2019-03-08T11:48:06.007Z,66.20
2019-03-08T11:49:07.914Z,66.50
2019-03-08T11:50:06.206Z,66.50
2019-03-08T11:51:05.663Z,66.60
2019-03-08T11:52:06.230Z,66.70
2019-03-08T11:53:08.244Z,67.20
2019-03-08T11:54:07.986Z,67.30
2019-03-08T11:55:05.168Z,67.20
2019-03-08T11:56:05.644Z,67.40
2019-03-08T11:57:05.921Z,67.60
2019-03-08T11:58:05.185Z,68.00
2019-03-08T11:59:05.429Z,68.10
2019-03-08T12:00:08.480Z,68.50
2019-03-08T12:01:05.938Z,68.50
2019-03-08T12:02:06.107Z,68.80
2019-03-08T12:03:05.517Z,68.90
2019-03-08T12:04:06.270Z,68.90
2019-03-08T12:05:08.472Z,69.40
2019-03-08T12:06:05.697Z,69.40
2019-03-08T12:07:06.152Z,69.50
2019-03-08T12:08:05.561Z,69.30
2019-03-08T12:09:06.011Z,69.90
2019-03-08T12:10:05.432Z,70.40
2019-03-08T12:11:10.792Z,70.50
2019-03-08T12:12:06.407Z,70.50
2019-03-08T12:13:06.122Z,70.20
2019-03-08T12:14:08.259Z,69.90
2019-03-08T12:15:05.732Z,69.80
2019-03-08T12:16:05.087Z,69.60
2019-03-08T12:17:08.121Z,69.10
2019-03-08T12:18:08.082Z,69.10
2019-03-08T12:19:05.394Z,69.10
2019-03-08T12:20:06.344Z,69.20
2019-03-08T12:21:05.940Z,68.70
2019-03-08T12:22:05.462Z,68.70
2019-03-08T12:23:05.955Z,68.30
2019-03-08T12:24:07.743Z,67.70
2019-03-08T12:25:06.086Z,67.80
2019-03-08T12:26:07.943Z,67.60
2019-03-08T12:27:10.390Z,67.20
2019-03-08T12:28:08.411Z,66.70
2019-03-08T12:29:05.878Z,66.60
2019-03-08T12:30:05.229Z,66.60
2019-03-08T12:31:05.582Z,66.40
2019-03-08T12:32:05.964Z,66.30
2019-03-08T12:33:07.911Z,66.00
2019-03-08T12:34:06.264Z,66.00
2019-03-08T12:35:05.746Z,65.40
2019-03-08T12:36:06.553Z,64.90
2019-03-08T12:37:11.201Z,64.20
2019-03-08T12:38:05.320Z,64.20
2019-03-08T12:39:08.391Z,63.30
2019-03-08T12:40:08.298Z,63.20
2019-03-08T12:41:08.198Z,62.60
2019-03-08T12:42:08.170Z,62.70
2019-03-08T12:43:08.581Z,62.70
2019-03-08T12:44:06.334Z,62.70
2019-03-08T12:45:05.831Z,62.80
2019-03-08T12:46:06.215Z,62.40
2019-03-08T12:47:05.793Z,62.30
2019-03-08T12:48:05.127Z,61.90
2019-03-08T12:49:05.492Z,61.60
2019-03-08T12:50:08.437Z,61.60
2019-03-08T12:51:08.253Z,61.70
2019-03-08T12:52:05.778Z,61.70